sensor_id;sensor_type;location;lat;lon;timestamp;P1;durP1;ratioP1;P2;durP2;ratioP2
2009;SDS011;1008;47.404;8.502;2023-04-24T00:00:05;1.50;;;1.00;;
2009;SDS011;1008;47.404;8.502;2023-04-24T00:02:35;1.40;;;0.80;;
2009;SDS011;1008;47.404;8.502;2023-04-24T00:05:03;1.27;;;0.80;;
2009;SDS011;1008;47.404;8.502;2023-04-24T00:07:30;1.00;;;0.70;;
2009;SDS011;1008;47.404;8.502;2023-04-24T00:09:57;0.80;;;0.70;;
2009;SDS011;1008;47.404;8.502;2023-04-24T00:12:25;1.00;;;0.83;;
2009;SDS011;1008;47.404;8.502;2023-04-24T00:14:52;2.30;;;1.00;;
2009;SDS011;1008;47.404;8.502;2023-04-24T00:17:19;1.90;;;0.90;;
2009;SDS011;1008;47.404;8.502;2023-04-24T00:19:47;0.90;;;0.80;;
2009;SDS011;1008;47.404;8.502;2023-04-24T00:22:16;1.10;;;0.90;;
2009;SDS011;1008;47.404;8.502;2023-04-24T00:24:43;0.90;;;0.80;;
2009;SDS011;1008;47.404;8.502;2023-04-24T00:27:09;1.30;;;0.90;;
2009;SDS011;1008;47.404;8.502;2023-04-24T00:29:36;1.00;;;0.77;;
2009;SDS011;1008;47.404;8.502;2023-04-24T00:32:03;1.20;;;0.80;;
2009;SDS011;1008;47.404;8.502;2023-04-24T00:34:30;1.00;;;0.80;;
2009;SDS011;1008;47.404;8.502;2023-04-24T00:36:58;0.80;;;0.60;;
2009;SDS011;1008;47.404;8.502;2023-04-24T00:39:25;0.90;;;0.63;;
2009;SDS011;1008;47.404;8.502;2023-04-24T00:41:52;1.00;;;0.90;;
2009;SDS011;1008;47.404;8.502;2023-04-24T00:44:20;0.90;;;0.67;;
2009;SDS011;1008;47.404;8.502;2023-04-24T00:46:47;0.93;;;0.83;;
2009;SDS011;1008;47.404;8.502;2023-04-24T00:49:17;0.80;;;0.60;;
2009;SDS011;1008;47.404;8.502;2023-04-24T00:51:44;0.80;;;0.60;;
2009;SDS011;1008;47.404;8.502;2023-04-24T00:54:12;1.23;;;0.73;;
2009;SDS011;1008;47.404;8.502;2023-04-24T00:56:39;0.87;;;0.70;;
2009;SDS011;1008;47.404;8.502;2023-04-24T00:59:07;0.90;;;0.70;;
2009;SDS011;1008;47.404;8.502;2023-04-24T01:01:34;2.03;;;0.70;;
2009;SDS011;1008;47.404;8.502;2023-04-24T01:04:01;0.70;;;0.50;;
2009;SDS011;1008;47.404;8.502;2023-04-24T01:06:28;0.80;;;0.60;;
2009;SDS011;1008;47.404;8.502;2023-04-24T01:08:57;1.97;;;0.70;;
2009;SDS011;1008;47.404;8.502;2023-04-24T01:11:26;0.90;;;0.60;;
2009;SDS011;1008;47.404;8.502;2023-04-24T01:13:53;0.80;;;0.60;;
2009;SDS011;1008;47.404;8.502;2023-04-24T01:16:20;1.40;;;0.60;;
2009;SDS011;1008;47.404;8.502;2023-04-24T01:18:47;0.90;;;0.67;;
2009;SDS011;1008;47.404;8.502;2023-04-24T01:21:14;0.80;;;0.67;;
2009;SDS011;1008;47.404;8.502;2023-04-24T01:23:43;0.80;;;0.70;;
2009;SDS011;1008;47.404;8.502;2023-04-24T01:26:10;0.80;;;0.60;;
2009;SDS011;1008;47.404;8.502;2023-04-24T01:28:37;1.00;;;0.53;;
2009;SDS011;1008;47.404;8.502;2023-04-24T01:31:04;1.07;;;0.70;;
2009;SDS011;1008;47.404;8.502;2023-04-24T01:33:31;0.90;;;0.63;;
2009;SDS011;1008;47.404;8.502;2023-04-24T01:35:58;0.90;;;0.60;;
2009;SDS011;1008;47.404;8.502;2023-04-24T01:38:25;0.80;;;0.57;;
2009;SDS011;1008;47.404;8.502;2023-04-24T01:40:53;0.80;;;0.70;;
2009;SDS011;1008;47.404;8.502;2023-04-24T01:43:20;0.93;;;0.77;;
2009;SDS011;1008;47.404;8.502;2023-04-24T01:45:46;0.80;;;0.70;;
2009;SDS011;1008;47.404;8.502;2023-04-24T01:48:13;0.77;;;0.60;;
2009;SDS011;1008;47.404;8.502;2023-04-24T01:50:40;0.90;;;0.70;;
2009;SDS011;1008;47.404;8.502;2023-04-24T01:53:07;0.80;;;0.60;;
2009;SDS011;1008;47.404;8.502;2023-04-24T01:55:34;0.90;;;0.77;;
2009;SDS011;1008;47.404;8.502;2023-04-24T01:58:03;0.73;;;0.60;;
2009;SDS011;1008;47.404;8.502;2023-04-24T02:00:29;0.90;;;0.67;;
2009;SDS011;1008;47.404;8.502;2023-04-24T02:02:56;0.80;;;0.67;;
2009;SDS011;1008;47.404;8.502;2023-04-24T02:05:23;0.80;;;0.60;;
2009;SDS011;1008;47.404;8.502;2023-04-24T02:07:49;0.80;;;0.60;;
2009;SDS011;1008;47.404;8.502;2023-04-24T02:10:16;0.80;;;0.63;;
2009;SDS011;1008;47.404;8.502;2023-04-24T02:12:43;0.80;;;0.70;;
2009;SDS011;1008;47.404;8.502;2023-04-24T02:15:11;0.70;;;0.57;;
2009;SDS011;1008;47.404;8.502;2023-04-24T02:17:38;0.83;;;0.60;;
2009;SDS011;1008;47.404;8.502;2023-04-24T02:20:05;0.70;;;0.53;;
2009;SDS011;1008;47.404;8.502;2023-04-24T02:22:33;0.80;;;0.60;;
2009;SDS011;1008;47.404;8.502;2023-04-24T02:25:00;0.90;;;0.60;;
2009;SDS011;1008;47.404;8.502;2023-04-24T02:27:26;0.83;;;0.60;;
2009;SDS011;1008;47.404;8.502;2023-04-24T02:29:53;0.90;;;0.60;;
2009;SDS011;1008;47.404;8.502;2023-04-24T02:32:22;0.80;;;0.70;;
2009;SDS011;1008;47.404;8.502;2023-04-24T02:34:49;0.80;;;0.60;;
2009;SDS011;1008;47.404;8.502;2023-04-24T02:37:16;0.80;;;0.63;;
2009;SDS011;1008;47.404;8.502;2023-04-24T02:39:42;1.57;;;0.60;;
2009;SDS011;1008;47.404;8.502;2023-04-24T02:42:09;0.77;;;0.60;;
2009;SDS011;1008;47.404;8.502;2023-04-24T02:44:36;1.10;;;0.80;;
2009;SDS011;1008;47.404;8.502;2023-04-24T02:47:03;0.80;;;0.60;;
2009;SDS011;1008;47.404;8.502;2023-04-24T02:49:31;0.70;;;0.50;;
2009;SDS011;1008;47.404;8.502;2023-04-24T02:51:58;0.80;;;0.60;;
2009;SDS011;1008;47.404;8.502;2023-04-24T02:54:25;0.77;;;0.60;;
2009;SDS011;1008;47.404;8.502;2023-04-24T02:56:51;0.73;;;0.60;;
2009;SDS011;1008;47.404;8.502;2023-04-24T02:59:18;0.70;;;0.60;;
2009;SDS011;1008;47.404;8.502;2023-04-24T03:01:46;0.93;;;0.67;;
2009;SDS011;1008;47.404;8.502;2023-04-24T03:04:13;0.80;;;0.70;;
2009;SDS011;1008;47.404;8.502;2023-04-24T03:06:41;0.70;;;0.60;;
2009;SDS011;1008;47.404;8.502;2023-04-24T03:09:08;0.97;;;0.70;;
2009;SDS011;1008;47.404;8.502;2023-04-24T03:11:35;2.30;;;0.80;;
2009;SDS011;1008;47.404;8.502;2023-04-24T03:14:02;0.70;;;0.50;;
2009;SDS011;1008;47.404;8.502;2023-04-24T03:16:29;0.83;;;0.60;;
2009;SDS011;1008;47.404;8.502;2023-04-24T03:18:55;0.80;;;0.60;;
2009;SDS011;1008;47.404;8.502;2023-04-24T03:21:22;1.00;;;0.60;;
2009;SDS011;1008;47.404;8.502;2023-04-24T03:23:50;1.10;;;0.70;;
2009;SDS011;1008;47.404;8.502;2023-04-24T03:26:17;0.70;;;0.60;;
2009;SDS011;1008;47.404;8.502;2023-04-24T03:28:44;0.70;;;0.60;;
2009;SDS011;1008;47.404;8.502;2023-04-24T03:31:10;0.80;;;0.70;;
2009;SDS011;1008;47.404;8.502;2023-04-24T03:33:37;0.80;;;0.60;;
2009;SDS011;1008;47.404;8.502;2023-04-24T03:36:04;0.80;;;0.70;;
2009;SDS011;1008;47.404;8.502;2023-04-24T03:38:31;0.70;;;0.60;;
2009;SDS011;1008;47.404;8.502;2023-04-24T03:40:59;0.80;;;0.70;;
2009;SDS011;1008;47.404;8.502;2023-04-24T03:43:26;0.70;;;0.60;;
2009;SDS011;1008;47.404;8.502;2023-04-24T03:45:53;0.90;;;0.60;;
2009;SDS011;1008;47.404;8.502;2023-04-24T03:48:19;0.80;;;0.70;;
2009;SDS011;1008;47.404;8.502;2023-04-24T03:50:46;1.87;;;0.63;;
2009;SDS011;1008;47.404;8.502;2023-04-24T03:53:13;0.77;;;0.60;;
2009;SDS011;1008;47.404;8.502;2023-04-24T03:55:40;1.53;;;0.73;;
2009;SDS011;1008;47.404;8.502;2023-04-24T03:58:08;0.80;;;0.60;;
2009;SDS011;1008;47.404;8.502;2023-04-24T04:00:36;0.87;;;0.70;;
2009;SDS011;1008;47.404;8.502;2023-04-24T04:03:06;1.07;;;0.73;;
2009;SDS011;1008;47.404;8.502;2023-04-24T04:05:32;0.70;;;0.60;;
2009;SDS011;1008;47.404;8.502;2023-04-24T04:07:59;0.90;;;0.70;;
2009;SDS011;1008;47.404;8.502;2023-04-24T04:10:26;0.80;;;0.60;;
2009;SDS011;1008;47.404;8.502;2023-04-24T04:12:52;0.70;;;0.60;;
2009;SDS011;1008;47.404;8.502;2023-04-24T04:15:20;0.70;;;0.50;;
2009;SDS011;1008;47.404;8.502;2023-04-24T04:17:47;0.70;;;0.60;;
2009;SDS011;1008;47.404;8.502;2023-04-24T04:20:14;0.80;;;0.60;;
2009;SDS011;1008;47.404;8.502;2023-04-24T04:22:41;1.37;;;0.77;;
2009;SDS011;1008;47.404;8.502;2023-04-24T04:25:08;0.70;;;0.60;;
2009;SDS011;1008;47.404;8.502;2023-04-24T04:27:35;0.93;;;0.70;;
2009;SDS011;1008;47.404;8.502;2023-04-24T04:30:02;1.10;;;1.00;;
2009;SDS011;1008;47.404;8.502;2023-04-24T04:32:31;0.70;;;0.60;;
2009;SDS011;1008;47.404;8.502;2023-04-24T04:34:59;0.80;;;0.60;;
2009;SDS011;1008;47.404;8.502;2023-04-24T04:37:28;0.80;;;0.70;;
2009;SDS011;1008;47.404;8.502;2023-04-24T04:39:54;1.73;;;0.90;;
2009;SDS011;1008;47.404;8.502;2023-04-24T04:42:23;0.80;;;0.60;;
2009;SDS011;1008;47.404;8.502;2023-04-24T04:44:49;0.90;;;0.60;;
2009;SDS011;1008;47.404;8.502;2023-04-24T04:47:16;0.80;;;0.70;;
2009;SDS011;1008;47.404;8.502;2023-04-24T04:49:45;1.63;;;0.87;;
2009;SDS011;1008;47.404;8.502;2023-04-24T04:52:11;0.80;;;0.70;;
2009;SDS011;1008;47.404;8.502;2023-04-24T04:54:38;1.10;;;0.80;;
2009;SDS011;1008;47.404;8.502;2023-04-24T04:57:05;0.80;;;0.70;;
2009;SDS011;1008;47.404;8.502;2023-04-24T04:59:33;0.90;;;0.80;;
2009;SDS011;1008;47.404;8.502;2023-04-24T05:01:59;0.77;;;0.70;;
2009;SDS011;1008;47.404;8.502;2023-04-24T05:04:26;1.00;;;0.90;;
2009;SDS011;1008;47.404;8.502;2023-04-24T05:06:54;1.23;;;0.90;;
2009;SDS011;1008;47.404;8.502;2023-04-24T05:09:21;1.30;;;0.60;;
2009;SDS011;1008;47.404;8.502;2023-04-24T05:11:48;0.80;;;0.80;;
2009;SDS011;1008;47.404;8.502;2023-04-24T05:14:14;1.03;;;0.90;;
2009;SDS011;1008;47.404;8.502;2023-04-24T05:16:42;2.53;;;1.00;;
2009;SDS011;1008;47.404;8.502;2023-04-24T05:19:09;1.03;;;0.93;;
2009;SDS011;1008;47.404;8.502;2023-04-24T05:21:36;1.10;;;1.00;;
2009;SDS011;1008;47.404;8.502;2023-04-24T05:24:05;0.90;;;0.90;;
2009;SDS011;1008;47.404;8.502;2023-04-24T05:26:32;1.30;;;1.03;;
2009;SDS011;1008;47.404;8.502;2023-04-24T05:29:00;1.20;;;1.07;;
2009;SDS011;1008;47.404;8.502;2023-04-24T05:31:27;1.40;;;1.00;;
2009;SDS011;1008;47.404;8.502;2023-04-24T05:33:54;1.20;;;0.87;;
2009;SDS011;1008;47.404;8.502;2023-04-24T05:36:20;1.63;;;1.40;;
2009;SDS011;1008;47.404;8.502;2023-04-24T05:38:47;1.33;;;1.23;;
2009;SDS011;1008;47.404;8.502;2023-04-24T05:41:15;2.17;;;1.27;;
2009;SDS011;1008;47.404;8.502;2023-04-24T05:43:42;1.90;;;1.40;;
2009;SDS011;1008;47.404;8.502;2023-04-24T05:46:09;2.27;;;1.27;;
2009;SDS011;1008;47.404;8.502;2023-04-24T05:48:37;1.97;;;1.43;;
2009;SDS011;1008;47.404;8.502;2023-04-24T05:51:04;1.77;;;1.60;;
2009;SDS011;1008;47.404;8.502;2023-04-24T05:53:31;2.37;;;1.80;;
2009;SDS011;1008;47.404;8.502;2023-04-24T05:55:57;2.57;;;1.70;;
2009;SDS011;1008;47.404;8.502;2023-04-24T05:58:26;2.50;;;1.67;;
2009;SDS011;1008;47.404;8.502;2023-04-24T06:00:52;2.90;;;1.60;;
2009;SDS011;1008;47.404;8.502;2023-04-24T06:03:20;2.20;;;1.80;;
2009;SDS011;1008;47.404;8.502;2023-04-24T06:05:46;2.57;;;1.70;;
2009;SDS011;1008;47.404;8.502;2023-04-24T06:08:13;2.03;;;1.60;;
2009;SDS011;1008;47.404;8.502;2023-04-24T06:10:40;1.20;;;1.10;;
2009;SDS011;1008;47.404;8.502;2023-04-24T06:13:07;1.67;;;1.00;;
2009;SDS011;1008;47.404;8.502;2023-04-24T06:15:35;1.10;;;1.00;;
2009;SDS011;1008;47.404;8.502;2023-04-24T06:18:02;1.20;;;1.10;;
2009;SDS011;1008;47.404;8.502;2023-04-24T06:20:28;1.30;;;1.10;;
2009;SDS011;1008;47.404;8.502;2023-04-24T06:22:55;1.40;;;1.20;;
2009;SDS011;1008;47.404;8.502;2023-04-24T06:27:51;0.80;;;0.80;;
2009;SDS011;1008;47.404;8.502;2023-04-24T06:30:18;1.00;;;0.80;;
2009;SDS011;1008;47.404;8.502;2023-04-24T06:32:46;1.43;;;1.00;;
2009;SDS011;1008;47.404;8.502;2023-04-24T06:35:12;1.10;;;1.00;;
2009;SDS011;1008;47.404;8.502;2023-04-24T06:37:39;1.00;;;0.90;;
2009;SDS011;1008;47.404;8.502;2023-04-24T06:40:07;1.37;;;1.20;;
2009;SDS011;1008;47.404;8.502;2023-04-24T06:42:35;1.27;;;1.17;;
2009;SDS011;1008;47.404;8.502;2023-04-24T06:45:02;1.23;;;0.90;;
2009;SDS011;1008;47.404;8.502;2023-04-24T06:47:29;1.37;;;1.00;;
2009;SDS011;1008;47.404;8.502;2023-04-24T06:49:57;1.20;;;1.10;;
2009;SDS011;1008;47.404;8.502;2023-04-24T06:52:24;1.53;;;1.00;;
2009;SDS011;1008;47.404;8.502;2023-04-24T06:54:51;1.40;;;1.20;;
2009;SDS011;1008;47.404;8.502;2023-04-24T06:57:18;1.80;;;1.37;;
2009;SDS011;1008;47.404;8.502;2023-04-24T06:59:51;1.93;;;1.17;;
2009;SDS011;1008;47.404;8.502;2023-04-24T07:02:20;1.20;;;1.10;;
2009;SDS011;1008;47.404;8.502;2023-04-24T07:04:47;2.03;;;1.20;;
2009;SDS011;1008;47.404;8.502;2023-04-24T07:07:15;1.23;;;1.10;;
2009;SDS011;1008;47.404;8.502;2023-04-24T07:09:42;1.20;;;1.10;;
2009;SDS011;1008;47.404;8.502;2023-04-24T07:12:10;1.60;;;1.00;;
2009;SDS011;1008;47.404;8.502;2023-04-24T07:14:37;1.37;;;1.27;;
2009;SDS011;1008;47.404;8.502;2023-04-24T07:17:04;1.10;;;1.00;;
2009;SDS011;1008;47.404;8.502;2023-04-24T07:19:31;1.30;;;1.20;;
2009;SDS011;1008;47.404;8.502;2023-04-24T07:21:59;1.50;;;1.33;;
2009;SDS011;1008;47.404;8.502;2023-04-24T07:24:27;1.40;;;1.20;;
2009;SDS011;1008;47.404;8.502;2023-04-24T07:26:54;1.63;;;1.40;;
2009;SDS011;1008;47.404;8.502;2023-04-24T07:29:21;1.30;;;1.20;;
2009;SDS011;1008;47.404;8.502;2023-04-24T07:31:48;2.07;;;1.30;;
2009;SDS011;1008;47.404;8.502;2023-04-24T07:34:15;1.70;;;1.60;;
2009;SDS011;1008;47.404;8.502;2023-04-24T07:36:42;2.03;;;1.40;;
2009;SDS011;1008;47.404;8.502;2023-04-24T07:39:09;1.20;;;1.10;;
2009;SDS011;1008;47.404;8.502;2023-04-24T07:41:38;1.47;;;1.30;;
2009;SDS011;1008;47.404;8.502;2023-04-24T07:44:05;1.40;;;1.30;;
2009;SDS011;1008;47.404;8.502;2023-04-24T07:46:32;1.77;;;1.20;;
2009;SDS011;1008;47.404;8.502;2023-04-24T07:48:58;1.60;;;1.50;;
2009;SDS011;1008;47.404;8.502;2023-04-24T07:51:26;2.50;;;1.40;;
2009;SDS011;1008;47.404;8.502;2023-04-24T07:53:53;2.70;;;1.70;;
2009;SDS011;1008;47.404;8.502;2023-04-24T07:56:20;2.57;;;1.50;;
2009;SDS011;1008;47.404;8.502;2023-04-24T07:58:48;4.90;;;1.80;;
2009;SDS011;1008;47.404;8.502;2023-04-24T08:01:15;1.90;;;1.80;;
2009;SDS011;1008;47.404;8.502;2023-04-24T08:03:42;1.63;;;1.53;;
2009;SDS011;1008;47.404;8.502;2023-04-24T08:06:09;1.50;;;1.40;;
2009;SDS011;1008;47.404;8.502;2023-04-24T08:08:35;2.53;;;1.40;;
2009;SDS011;1008;47.404;8.502;2023-04-24T08:11:02;1.60;;;1.50;;
2009;SDS011;1008;47.404;8.502;2023-04-24T08:13:29;1.77;;;1.60;;
2009;SDS011;1008;47.404;8.502;2023-04-24T08:15:57;2.73;;;1.93;;
2009;SDS011;1008;47.404;8.502;2023-04-24T08:18:24;2.77;;;2.20;;
2009;SDS011;1008;47.404;8.502;2023-04-24T08:20:51;2.30;;;1.60;;
2009;SDS011;1008;47.404;8.502;2023-04-24T08:23:18;3.20;;;2.17;;
2009;SDS011;1008;47.404;8.502;2023-04-24T08:25:44;6.80;;;2.40;;
2009;SDS011;1008;47.404;8.502;2023-04-24T08:28:11;6.30;;;2.37;;
2009;SDS011;1008;47.404;8.502;2023-04-24T08:30:44;3.07;;;2.17;;
2009;SDS011;1008;47.404;8.502;2023-04-24T08:33:13;3.00;;;1.87;;
2009;SDS011;1008;47.404;8.502;2023-04-24T08:35:40;2.30;;;2.10;;
2009;SDS011;1008;47.404;8.502;2023-04-24T08:38:07;4.50;;;1.90;;
2009;SDS011;1008;47.404;8.502;2023-04-24T08:40:34;3.70;;;2.43;;
2009;SDS011;1008;47.404;8.502;2023-04-24T08:43:01;5.70;;;2.77;;
2009;SDS011;1008;47.404;8.502;2023-04-24T08:45:29;4.00;;;2.70;;
2009;SDS011;1008;47.404;8.502;2023-04-24T08:47:56;5.03;;;2.37;;
2009;SDS011;1008;47.404;8.502;2023-04-24T08:50:25;3.70;;;2.50;;
2009;SDS011;1008;47.404;8.502;2023-04-24T08:52:52;7.47;;;3.20;;
2009;SDS011;1008;47.404;8.502;2023-04-24T08:55:20;2.43;;;2.23;;
2009;SDS011;1008;47.404;8.502;2023-04-24T08:57:50;3.50;;;2.43;;
2009;SDS011;1008;47.404;8.502;2023-04-24T09:00:18;4.43;;;2.90;;
2009;SDS011;1008;47.404;8.502;2023-04-24T09:02:47;3.23;;;2.70;;
2009;SDS011;1008;47.404;8.502;2023-04-24T09:05:16;4.37;;;3.00;;
2009;SDS011;1008;47.404;8.502;2023-04-24T09:07:46;4.27;;;2.60;;
2009;SDS011;1008;47.404;8.502;2023-04-24T09:10:18;3.67;;;2.90;;
2009;SDS011;1008;47.404;8.502;2023-04-24T09:12:46;5.40;;;3.20;;
2009;SDS011;1008;47.404;8.502;2023-04-24T09:15:13;3.50;;;2.73;;
2009;SDS011;1008;47.404;8.502;2023-04-24T09:17:40;2.97;;;2.67;;
2009;SDS011;1008;47.404;8.502;2023-04-24T09:20:08;4.97;;;3.03;;
2009;SDS011;1008;47.404;8.502;2023-04-24T09:22:35;2.90;;;2.27;;
2009;SDS011;1008;47.404;8.502;2023-04-24T09:25:04;3.10;;;2.50;;
2009;SDS011;1008;47.404;8.502;2023-04-24T09:27:32;2.80;;;2.50;;
2009;SDS011;1008;47.404;8.502;2023-04-24T09:29:59;2.90;;;2.00;;
2009;SDS011;1008;47.404;8.502;2023-04-24T09:32:27;2.20;;;2.00;;
2009;SDS011;1008;47.404;8.502;2023-04-24T09:35:05;4.50;;;2.07;;
2009;SDS011;1008;47.404;8.502;2023-04-24T09:37:36;2.17;;;1.90;;
2009;SDS011;1008;47.404;8.502;2023-04-24T09:40:09;2.33;;;2.00;;
2009;SDS011;1008;47.404;8.502;2023-04-24T09:42:37;3.80;;;2.13;;
2009;SDS011;1008;47.404;8.502;2023-04-24T09:45:05;2.37;;;1.90;;
2009;SDS011;1008;47.404;8.502;2023-04-24T09:47:35;4.10;;;2.17;;
2009;SDS011;1008;47.404;8.502;2023-04-24T09:50:08;3.70;;;2.00;;
2009;SDS011;1008;47.404;8.502;2023-04-24T09:52:39;4.07;;;2.30;;
2009;SDS011;1008;47.404;8.502;2023-04-24T09:55:11;3.20;;;1.97;;
2009;SDS011;1008;47.404;8.502;2023-04-24T09:57:46;3.43;;;2.30;;
2009;SDS011;1008;47.404;8.502;2023-04-24T10:00:17;2.63;;;2.13;;
2009;SDS011;1008;47.404;8.502;2023-04-24T10:02:49;3.77;;;1.97;;
2009;SDS011;1008;47.404;8.502;2023-04-24T10:05:16;1.90;;;1.67;;
2009;SDS011;1008;47.404;8.502;2023-04-24T10:07:46;2.33;;;2.03;;
2009;SDS011;1008;47.404;8.502;2023-04-24T10:10:14;4.07;;;2.00;;
2009;SDS011;1008;47.404;8.502;2023-04-24T10:12:41;2.27;;;2.07;;
2009;SDS011;1008;47.404;8.502;2023-04-24T10:15:10;2.13;;;1.93;;
2009;SDS011;1008;47.404;8.502;2023-04-24T10:17:38;5.67;;;2.03;;
2009;SDS011;1008;47.404;8.502;2023-04-24T10:20:06;5.03;;;2.57;;
2009;SDS011;1008;47.404;8.502;2023-04-24T10:22:34;3.10;;;2.20;;
2009;SDS011;1008;47.404;8.502;2023-04-24T10:25:04;3.80;;;2.27;;
2009;SDS011;1008;47.404;8.502;2023-04-24T10:27:32;2.60;;;1.90;;
2009;SDS011;1008;47.404;8.502;2023-04-24T10:30:01;2.55;;;2.10;;
2009;SDS011;1008;47.404;8.502;2023-04-24T10:32:29;4.03;;;1.73;;
2009;SDS011;1008;47.404;8.502;2023-04-24T10:34:56;2.40;;;1.87;;
2009;SDS011;1008;47.404;8.502;2023-04-24T10:37:23;2.57;;;1.87;;
2009;SDS011;1008;47.404;8.502;2023-04-24T10:39:51;4.83;;;1.77;;
2009;SDS011;1008;47.404;8.502;2023-04-24T10:42:19;5.00;;;1.97;;
2009;SDS011;1008;47.404;8.502;2023-04-24T10:44:48;1.83;;;1.60;;
2009;SDS011;1008;47.404;8.502;2023-04-24T10:47:15;2.50;;;1.73;;
2009;SDS011;1008;47.404;8.502;2023-04-24T10:49:41;1.90;;;1.70;;
2009;SDS011;1008;47.404;8.502;2023-04-24T10:52:09;2.57;;;1.80;;
2009;SDS011;1008;47.404;8.502;2023-04-24T10:54:40;2.60;;;1.80;;
2009;SDS011;1008;47.404;8.502;2023-04-24T10:57:25;2.97;;;2.27;;
2009;SDS011;1008;47.404;8.502;2023-04-24T11:00:16;2.13;;;1.87;;
2009;SDS011;1008;47.404;8.502;2023-04-24T11:02:45;2.23;;;1.90;;
2009;SDS011;1008;47.404;8.502;2023-04-24T11:05:18;3.20;;;1.87;;
2009;SDS011;1008;47.404;8.502;2023-04-24T11:10:37;2.70;;;1.63;;
2009;SDS011;1008;47.404;8.502;2023-04-24T11:13:09;2.47;;;1.87;;
2009;SDS011;1008;47.404;8.502;2023-04-24T11:15:38;2.87;;;2.17;;
2009;SDS011;1008;47.404;8.502;2023-04-24T11:18:11;2.07;;;1.87;;
2009;SDS011;1008;47.404;8.502;2023-04-24T11:20:41;3.57;;;2.00;;
2009;SDS011;1008;47.404;8.502;2023-04-24T11:23:08;2.47;;;1.70;;
2009;SDS011;1008;47.404;8.502;2023-04-24T11:25:38;2.73;;;2.20;;
2009;SDS011;1008;47.404;8.502;2023-04-24T11:28:05;3.67;;;1.80;;
2009;SDS011;1008;47.404;8.502;2023-04-24T11:30:32;2.50;;;2.10;;
2009;SDS011;1008;47.404;8.502;2023-04-24T11:33:03;4.00;;;2.50;;
2009;SDS011;1008;47.404;8.502;2023-04-24T11:35:34;1.67;;;1.57;;
2009;SDS011;1008;47.404;8.502;2023-04-24T11:38:05;3.73;;;1.87;;
2009;SDS011;1008;47.404;8.502;2023-04-24T11:40:33;2.80;;;1.90;;
2009;SDS011;1008;47.404;8.502;2023-04-24T11:43:00;3.27;;;1.83;;
2009;SDS011;1008;47.404;8.502;2023-04-24T11:45:27;2.07;;;1.70;;
2009;SDS011;1008;47.404;8.502;2023-04-24T11:47:55;3.40;;;1.93;;
2009;SDS011;1008;47.404;8.502;2023-04-24T11:50:25;2.20;;;1.80;;
2009;SDS011;1008;47.404;8.502;2023-04-24T11:52:54;3.17;;;2.33;;
2009;SDS011;1008;47.404;8.502;2023-04-24T11:55:25;2.10;;;1.70;;
2009;SDS011;1008;47.404;8.502;2023-04-24T11:57:53;3.60;;;1.90;;
2009;SDS011;1008;47.404;8.502;2023-04-24T12:00:22;2.40;;;1.93;;
2009;SDS011;1008;47.404;8.502;2023-04-24T12:02:51;2.60;;;2.17;;
2009;SDS011;1008;47.404;8.502;2023-04-24T12:05:21;2.20;;;2.00;;
2009;SDS011;1008;47.404;8.502;2023-04-24T12:07:50;4.60;;;2.13;;
2009;SDS011;1008;47.404;8.502;2023-04-24T12:10:19;2.70;;;2.20;;
2009;SDS011;1008;47.404;8.502;2023-04-24T12:12:47;2.63;;;2.03;;
2009;SDS011;1008;47.404;8.502;2023-04-24T12:15:15;8.63;;;2.10;;
2009;SDS011;1008;47.404;8.502;2023-04-24T12:17:43;2.63;;;1.90;;
2009;SDS011;1008;47.404;8.502;2023-04-24T12:20:11;3.90;;;1.80;;
2009;SDS011;1008;47.404;8.502;2023-04-24T12:22:45;2.00;;;1.80;;
2009;SDS011;1008;47.404;8.502;2023-04-24T12:25:14;1.97;;;1.70;;
2009;SDS011;1008;47.404;8.502;2023-04-24T12:27:43;2.77;;;1.83;;
2009;SDS011;1008;47.404;8.502;2023-04-24T12:30:11;2.30;;;2.00;;
2009;SDS011;1008;47.404;8.502;2023-04-24T12:32:43;4.20;;;1.57;;
2009;SDS011;1008;47.404;8.502;2023-04-24T12:35:12;2.37;;;1.80;;
2009;SDS011;1008;47.404;8.502;2023-04-24T12:37:41;3.20;;;1.60;;
2009;SDS011;1008;47.404;8.502;2023-04-24T12:40:09;2.17;;;1.97;;
2009;SDS011;1008;47.404;8.502;2023-04-24T12:42:42;2.20;;;1.70;;
2009;SDS011;1008;47.404;8.502;2023-04-24T12:45:10;2.40;;;2.10;;
2009;SDS011;1008;47.404;8.502;2023-04-24T12:47:38;3.23;;;1.80;;
2009;SDS011;1008;47.404;8.502;2023-04-24T12:50:06;2.03;;;1.83;;
2009;SDS011;1008;47.404;8.502;2023-04-24T12:52:34;1.80;;;1.70;;
2009;SDS011;1008;47.404;8.502;2023-04-24T12:55:00;2.80;;;1.80;;
2009;SDS011;1008;47.404;8.502;2023-04-24T12:57:28;1.97;;;1.57;;
2009;SDS011;1008;47.404;8.502;2023-04-24T12:59:57;4.20;;;1.77;;
2009;SDS011;1008;47.404;8.502;2023-04-24T13:02:25;3.43;;;2.27;;
2009;SDS011;1008;47.404;8.502;2023-04-24T13:04:54;2.70;;;1.50;;
2009;SDS011;1008;47.404;8.502;2023-04-24T13:07:20;1.97;;;1.60;;
2009;SDS011;1008;47.404;8.502;2023-04-24T13:09:47;3.00;;;2.20;;
2009;SDS011;1008;47.404;8.502;2023-04-24T13:12:15;1.80;;;1.67;;
2009;SDS011;1008;47.404;8.502;2023-04-24T13:14:42;2.23;;;1.77;;
2009;SDS011;1008;47.404;8.502;2023-04-24T13:17:10;2.27;;;1.40;;
2009;SDS011;1008;47.404;8.502;2023-04-24T13:19:38;2.33;;;1.70;;
2009;SDS011;1008;47.404;8.502;2023-04-24T13:22:06;1.57;;;1.47;;
2009;SDS011;1008;47.404;8.502;2023-04-24T13:24:33;2.07;;;1.73;;
2009;SDS011;1008;47.404;8.502;2023-04-24T13:27:00;3.07;;;2.20;;
2009;SDS011;1008;47.404;8.502;2023-04-24T13:29:27;2.37;;;2.17;;
2009;SDS011;1008;47.404;8.502;2023-04-24T13:31:54;2.10;;;1.70;;
2009;SDS011;1008;47.404;8.502;2023-04-24T13:34:23;1.87;;;1.70;;
2009;SDS011;1008;47.404;8.502;2023-04-24T13:36:50;4.10;;;2.30;;
2009;SDS011;1008;47.404;8.502;2023-04-24T13:39:17;2.70;;;2.00;;
2009;SDS011;1008;47.404;8.502;2023-04-24T13:41:44;2.10;;;1.87;;
2009;SDS011;1008;47.404;8.502;2023-04-24T13:44:12;4.57;;;2.90;;
2009;SDS011;1008;47.404;8.502;2023-04-24T13:46:40;2.80;;;2.03;;
2009;SDS011;1008;47.404;8.502;2023-04-24T13:49:06;2.23;;;2.00;;
2009;SDS011;1008;47.404;8.502;2023-04-24T13:51:34;2.07;;;1.87;;
2009;SDS011;1008;47.404;8.502;2023-04-24T13:54:01;2.27;;;1.83;;
2009;SDS011;1008;47.404;8.502;2023-04-24T13:56:28;2.50;;;1.90;;
2009;SDS011;1008;47.404;8.502;2023-04-24T13:58:55;4.70;;;2.60;;
2009;SDS011;1008;47.404;8.502;2023-04-24T14:01:22;2.40;;;1.97;;
2009;SDS011;1008;47.404;8.502;2023-04-24T14:03:49;2.37;;;2.10;;
2009;SDS011;1008;47.404;8.502;2023-04-24T14:06:17;2.50;;;1.80;;
2009;SDS011;1008;47.404;8.502;2023-04-24T14:08:45;3.27;;;2.13;;
2009;SDS011;1008;47.404;8.502;2023-04-24T14:11:11;3.30;;;2.03;;
2009;SDS011;1008;47.404;8.502;2023-04-24T14:13:39;2.80;;;2.20;;
2009;SDS011;1008;47.404;8.502;2023-04-24T14:16:07;3.10;;;2.10;;
2009;SDS011;1008;47.404;8.502;2023-04-24T14:18:34;2.40;;;1.90;;
2009;SDS011;1008;47.404;8.502;2023-04-24T14:21:01;2.30;;;2.10;;
2009;SDS011;1008;47.404;8.502;2023-04-24T14:23:28;3.07;;;1.93;;
2009;SDS011;1008;47.404;8.502;2023-04-24T14:25:56;3.43;;;1.90;;
2009;SDS011;1008;47.404;8.502;2023-04-24T14:28:23;3.20;;;2.20;;
2009;SDS011;1008;47.404;8.502;2023-04-24T14:30:51;3.10;;;2.07;;
2009;SDS011;1008;47.404;8.502;2023-04-24T14:33:18;2.87;;;2.03;;
2009;SDS011;1008;47.404;8.502;2023-04-24T14:35:45;4.43;;;2.70;;
2009;SDS011;1008;47.404;8.502;2023-04-24T14:38:12;3.63;;;2.07;;
2009;SDS011;1008;47.404;8.502;2023-04-24T14:40:40;3.00;;;2.03;;
2009;SDS011;1008;47.404;8.502;2023-04-24T14:43:08;3.23;;;2.27;;
2009;SDS011;1008;47.404;8.502;2023-04-24T14:45:35;2.40;;;2.07;;
2009;SDS011;1008;47.404;8.502;2023-04-24T14:48:03;3.30;;;2.30;;
2009;SDS011;1008;47.404;8.502;2023-04-24T14:50:30;2.13;;;1.90;;
2009;SDS011;1008;47.404;8.502;2023-04-24T14:52:56;2.40;;;2.20;;
2009;SDS011;1008;47.404;8.502;2023-04-24T14:55:23;2.80;;;1.90;;
2009;SDS011;1008;47.404;8.502;2023-04-24T14:57:51;2.20;;;1.83;;
2009;SDS011;1008;47.404;8.502;2023-04-24T15:00:20;2.70;;;2.17;;
2009;SDS011;1008;47.404;8.502;2023-04-24T15:02:49;3.40;;;2.40;;
2009;SDS011;1008;47.404;8.502;2023-04-24T15:05:16;2.97;;;2.20;;
2009;SDS011;1008;47.404;8.502;2023-04-24T15:07:43;2.40;;;2.20;;
2009;SDS011;1008;47.404;8.502;2023-04-24T15:10:10;5.33;;;2.60;;
2009;SDS011;1008;47.404;8.502;2023-04-24T15:12:37;2.30;;;2.10;;
2009;SDS011;1008;47.404;8.502;2023-04-24T15:15:04;2.30;;;2.10;;
2009;SDS011;1008;47.404;8.502;2023-04-24T15:17:33;2.10;;;1.80;;
2009;SDS011;1008;47.404;8.502;2023-04-24T15:20:00;2.70;;;2.37;;
2009;SDS011;1008;47.404;8.502;2023-04-24T15:22:28;2.30;;;1.80;;